This is the latest recevied weather packets stored in our database for station/object OH2HCY-3. If no packets are shown the sender has not sent any weather packets the latest 10 day(s).
| Time | Temp. | Humidity | Pressure | Rain* | Wind** | Luminosity | Snow |
|---|---|---|---|---|---|---|---|
| 1787657042 | 18.89° C | 46% | 1019.7 hPa | - | - | - | - |
| 1787655891 | 17.78° C | 46% | 1019.7 hPa | - | - | - | - |
| 1787654775 | 17.78° C | 47% | 1019.6 hPa | - | - | - | - |
| 1787653704 | 17.78° C | 45% | 1019.4 hPa | - | - | - | - |
| 1787652642 | 17.22° C | 51% | 1019.5 hPa | - | - | - | - |
| 1787651674 | 17.78° C | 49% | 1019.4 hPa | - | - | - | - |
| 1787651672 | 17.78° C | 49% | 1019.4 hPa | - | - | - | - |
| 1787650602 | 17.78° C | 49% | 1019.3 hPa | - | - | - | - |
| 1787649637 | 16.67° C | 54% | 1019.1 hPa | - | - | - | - |
| 1787648444 | 16.67° C | 51% | - | - | - | - | - |
| 1787648440 | 16.67° C | 51% | 1019.1 hPa | - | - | - | - |
| 1787647362 | 16.67° C | 54% | 1019 hPa | - | - | - | - |
| 1787646300 | 16.11° C | 52% | 1018.9 hPa | - | - | - | - |
| 1787645307 | 16.11° C | 53% | 1018.9 hPa | - | - | - | - |
| 1787644328 | 16.11° C | 54% | 1018.6 hPa | - | - | - | - |
| 1787643284 | 15.56° C | 58% | 1018.4 hPa | - | - | - | - |
| 1787642187 | 15° C | 67% | 1018.4 hPa | - | - | - | - |
| 1787641147 | 14.44° C | 71% | 1018.4 hPa | - | - | - | - |
| 1787640087 | 13.33° C | 76% | 1018.5 hPa | - | - | - | - |
| 1787638898 | 12.78° C | 79% | 1018.3 hPa | - | - | - | - |
| 1787637762 | 11.67° C | 82% | 1018.1 hPa | - | - | - | - |
| 1787636587 | 11.67° C | 84% | 1018 hPa | - | - | - | - |
| 1787635432 | 10.56° C | 86% | 1018.1 hPa | - | - | - | - |
| 1787634430 | 10.56° C | 87% | 1018.1 hPa | - | - | - | - |
| 1787633412 | 10° C | 90% | 1017.9 hPa | - | - | - | - |
* Rain since midnight (hover to see other rain measurements)
** Current wind speed in m/s (hover to see current wind gust speed)